Time;durP1;ratioP1;P1;durP2;ratioP2;P2;SDS_P1;SDS_P2;PMS_P1;PMS_P2;Temp;Humidity;BMP_temperature;BMP_pressure;BME280_temperature;BME280_humidity;BME280_pressure;Samples;Min_cycle;Max_cycle;Signal;HPM_P1;HPM_P2
2023/06/06 00:01:31;;;;;;;12.40;6.53;;;;;;;;;;5074730;28;20445;-61
2023/06/06 00:04:00;;;;;;;7.07;5.73;;;;;;;;;;5074200;28;20451;-61
2023/06/06 00:06:32;;;;;;;8.23;6.17;;;;;;;;;;5074302;28;20442;-61
2023/06/06 00:08:59;;;;;;;8.27;7.13;;;;;;;;;;5074150;28;20431;-61
2023/06/06 00:11:28;;;;;;;9.63;6.57;;;;;;;;;;5073943;28;20489;-61
2023/06/06 00:13:56;;;;;;;7.80;6.30;;;;;;;;;;5073856;28;20505;-61
2023/06/06 00:16:27;;;;;;;9.30;6.13;;;;;;;;;;5073568;28;20479;-61
2023/06/06 00:18:55;;;;;;;11.30;6.47;;;;;;;;;;5074294;28;20774;-61
2023/06/06 00:21:23;;;;;;;8.90;6.40;;;;;;;;;;5074048;28;20444;-61
2023/06/06 00:23:52;;;;;;;7.70;6.90;;;;;;;;;;5073803;28;20456;-61
2023/06/06 00:26:19;;;;;;;9.53;6.50;;;;;;;;;;5073683;28;20483;-61
2023/06/06 00:28:46;;;;;;;10.13;6.50;;;;;;;;;;5073695;28;20442;-61
2023/06/06 00:31:14;;;;;;;7.53;5.93;;;;;;;;;;5073532;28;20439;-61
2023/06/06 00:33:41;;;;;;;13.23;6.80;;;;;;;;;;5073864;28;20572;-61
2023/06/06 00:36:08;;;;;;;7.40;6.70;;;;;;;;;;5073164;28;20441;-61
2023/06/06 00:38:37;;;;;;;9.47;7.03;;;;;;;;;;5074057;28;20440;-61
2023/06/06 00:41:04;;;;;;;9.00;6.83;;;;;;;;;;5073376;28;20438;-61
2023/06/06 00:43:31;;;;;;;7.67;6.97;;;;;;;;;;5073738;28;20452;-61
2023/06/06 00:45:59;;;;;;;11.00;8.17;;;;;;;;;;5074160;28;20451;-61
2023/06/06 00:48:26;;;;;;;11.97;6.67;;;;;;;;;;5074057;28;20799;-61
2023/06/06 00:50:55;;;;;;;10.73;7.17;;;;;;;;;;5073528;28;20542;-61
2023/06/06 00:53:22;;;;;;;13.00;6.97;;;;;;;;;;5073532;28;20450;-61
2023/06/06 00:55:51;;;;;;;11.33;7.30;;;;;;;;;;5073747;28;20454;-63
2023/06/06 00:58:18;;;;;;;11.03;6.70;;;;;;;;;;5074367;28;20431;-62
2023/06/06 01:00:46;;;;;;;8.60;6.50;;;;;;;;;;5073470;28;20453;-62
2023/06/06 01:03:14;;;;;;;11.13;6.83;;;;;;;;;;5073142;28;20442;-61
2023/06/06 01:05:41;;;;;;;13.50;6.90;;;;;;;;;;5073118;28;20504;-62
2023/06/06 01:08:08;;;;;;;11.30;7.47;;;;;;;;;;5073123;28;20953;-62
2023/06/06 01:10:36;;;;;;;9.40;7.43;;;;;;;;;;5073438;28;20537;-61
2023/06/06 01:13:12;;;;;;;9.37;6.83;;;;;;;;;;5073341;28;20520;-62
2023/06/06 01:15:44;;;;;;;8.60;7.57;;;;;;;;;;5073219;28;20485;-62
2023/06/06 01:18:12;;;;;;;11.30;7.10;;;;;;;;;;5073364;28;20451;-62
2023/06/06 01:20:40;;;;;;;9.10;7.13;;;;;;;;;;5073327;28;20438;-62
2023/06/06 01:23:10;;;;;;;14.47;8.33;;;;;;;;;;5072883;28;20936;-62
2023/06/06 01:25:37;;;;;;;7.93;6.77;;;;;;;;;;5072975;28;20970;-61
2023/06/06 01:28:04;;;;;;;9.20;7.73;;;;;;;;;;5073210;28;20809;-62
2023/06/06 01:30:33;;;;;;;11.37;7.40;;;;;;;;;;5073214;28;20520;-62
2023/06/06 01:33:05;;;;;;;10.07;7.30;;;;;;;;;;5073137;28;20549;-61
2023/06/06 01:35:36;;;;;;;9.90;8.20;;;;;;;;;;5073193;28;20468;-61
2023/06/06 01:38:07;;;;;;;12.50;8.03;;;;;;;;;;5072945;28;20442;-62
2023/06/06 01:40:35;;;;;;;9.33;6.80;;;;;;;;;;5072873;28;20430;-62
2023/06/06 01:43:04;;;;;;;9.23;6.90;;;;;;;;;;5073195;28;20454;-62
2023/06/06 01:45:32;;;;;;;9.90;7.60;;;;;;;;;;5073004;28;20934;-62
2023/06/06 01:48:00;;;;;;;7.70;6.90;;;;;;;;;;5076048;28;20468;-62
2023/06/06 01:50:27;;;;;;;13.33;8.00;;;;;;;;;;5077451;28;20438;-61
2023/06/06 01:52:55;;;;;;;14.47;8.07;;;;;;;;;;5076624;28;20441;-62
2023/06/06 01:55:22;;;;;;;15.10;7.77;;;;;;;;;;5077009;28;20565;-61
2023/06/06 01:57:50;;;;;;;14.10;7.77;;;;;;;;;;5077105;28;20442;-62
2023/06/06 02:00:19;;;;;;;19.83;8.00;;;;;;;;;;5076585;28;20449;-62
2023/06/06 02:02:46;;;;;;;16.53;8.53;;;;;;;;;;5076364;28;20438;-61
2023/06/06 02:05:14;;;;;;;9.20;7.60;;;;;;;;;;5076907;28;20441;-61
2023/06/06 02:07:42;;;;;;;8.53;7.13;;;;;;;;;;5076589;28;20451;-62
2023/06/06 02:10:10;;;;;;;12.73;9.00;;;;;;;;;;5076681;28;20447;-61
2023/06/06 02:12:37;;;;;;;14.63;8.07;;;;;;;;;;5076807;28;20444;-61
2023/06/06 02:15:06;;;;;;;12.33;7.43;;;;;;;;;;5076504;28;20489;-61
2023/06/06 02:17:33;;;;;;;12.93;8.20;;;;;;;;;;5076774;28;20453;-62
2023/06/06 02:20:01;;;;;;;11.23;8.20;;;;;;;;;;5076713;28;20449;-61
2023/06/06 02:22:28;;;;;;;10.97;8.40;;;;;;;;;;5076278;28;20440;-62
2023/06/06 02:24:56;;;;;;;10.57;8.23;;;;;;;;;;5076690;28;20840;-61
2023/06/06 02:27:23;;;;;;;10.17;7.60;;;;;;;;;;5076809;28;20476;-62
2023/06/06 02:29:50;;;;;;;12.07;7.93;;;;;;;;;;5076552;28;20531;-61
2023/06/06 02:32:20;;;;;;;13.97;8.43;;;;;;;;;;5076214;28;20442;-62
2023/06/06 02:34:47;;;;;;;10.53;7.70;;;;;;;;;;5076455;28;20484;-61
2023/06/06 02:37:14;;;;;;;11.20;8.27;;;;;;;;;;5076112;28;20448;-62
2023/06/06 02:39:41;;;;;;;13.33;8.60;;;;;;;;;;5076109;28;20445;-61
2023/06/06 02:42:09;;;;;;;11.40;8.10;;;;;;;;;;5076007;28;20445;-62
2023/06/06 02:44:36;;;;;;;14.83;9.13;;;;;;;;;;5076398;28;20446;-61
2023/06/06 02:47:03;;;;;;;11.10;7.37;;;;;;;;;;5075615;28;20444;-62
2023/06/06 02:49:32;;;;;;;12.07;8.70;;;;;;;;;;5075652;28;20453;-61
2023/06/06 02:51:59;;;;;;;10.90;8.37;;;;;;;;;;5075901;28;20792;-61
2023/06/06 02:54:26;;;;;;;11.63;8.43;;;;;;;;;;5075681;28;20612;-62
2023/06/06 02:56:54;;;;;;;10.70;8.10;;;;;;;;;;5075848;28;20796;-61
2023/06/06 02:59:21;;;;;;;11.50;7.97;;;;;;;;;;5074977;28;20441;-61
2023/06/06 03:01:49;;;;;;;11.83;8.13;;;;;;;;;;5075708;28;20537;-61
2023/06/06 03:04:16;;;;;;;10.00;7.70;;;;;;;;;;5075511;28;20484;-62
2023/06/06 03:06:45;;;;;;;12.30;8.10;;;;;;;;;;5075888;28;20442;-61
2023/06/06 03:09:14;;;;;;;11.50;7.60;;;;;;;;;;5075469;28;20449;-61
2023/06/06 03:11:41;;;;;;;12.33;7.73;;;;;;;;;;5075183;28;20446;-61
2023/06/06 03:14:09;;;;;;;12.03;7.33;;;;;;;;;;5074903;28;20924;-62
2023/06/06 03:16:36;;;;;;;13.10;7.67;;;;;;;;;;5075623;28;20538;-62
2023/06/06 03:19:04;;;;;;;14.63;8.60;;;;;;;;;;5075273;28;20439;-62
2023/06/06 03:21:33;;;;;;;11.67;7.90;;;;;;;;;;5074821;28;20442;-61
2023/06/06 03:24:01;;;;;;;19.43;9.00;;;;;;;;;;5075148;28;20446;-64
2023/06/06 03:26:29;;;;;;;12.27;9.13;;;;;;;;;;5075874;28;20441;-62
2023/06/06 03:28:57;;;;;;;11.17;7.80;;;;;;;;;;5075115;28;20547;-61
2023/06/06 03:31:24;;;;;;;12.33;8.50;;;;;;;;;;5075141;28;20534;-61
2023/06/06 03:33:51;;;;;;;15.57;9.07;;;;;;;;;;5075102;28;20444;-61
2023/06/06 03:36:19;;;;;;;12.37;8.40;;;;;;;;;;5075157;28;20488;-61
2023/06/06 03:38:46;;;;;;;10.60;7.73;;;;;;;;;;5074390;28;20532;-61
2023/06/06 03:41:15;;;;;;;12.07;8.93;;;;;;;;;;5073928;28;20449;-62
2023/06/06 03:43:43;;;;;;;9.40;7.93;;;;;;;;;;5074457;28;20502;-61
2023/06/06 03:46:10;;;;;;;10.67;9.33;;;;;;;;;;5074673;28;20460;-61
2023/06/06 03:48:37;;;;;;;14.37;8.60;;;;;;;;;;5074275;28;20445;-62
2023/06/06 03:51:04;;;;;;;15.17;8.43;;;;;;;;;;5073887;28;20533;-61
2023/06/06 03:53:31;;;;;;;19.63;8.80;;;;;;;;;;5074324;28;20448;-62
2023/06/06 03:55:59;;;;;;;12.90;8.93;;;;;;;;;;5074074;28;20476;-61
2023/06/06 03:58:29;;;;;;;9.60;7.90;;;;;;;;;;5074349;28;20795;-61
2023/06/06 04:00:58;;;;;;;13.53;9.30;;;;;;;;;;5074924;28;20495;-62
2023/06/06 04:03:25;;;;;;;11.93;8.40;;;;;;;;;;5073981;28;20445;-62
2023/06/06 04:05:53;;;;;;;15.40;8.83;;;;;;;;;;5074423;28;20450;-61
2023/06/06 04:08:20;;;;;;;14.10;8.87;;;;;;;;;;5074234;28;20444;-62
2023/06/06 04:10:48;;;;;;;11.00;8.80;;;;;;;;;;5073092;28;20931;-61
2023/06/06 04:13:15;;;;;;;12.60;9.40;;;;;;;;;;5074043;28;20940;-62
2023/06/06 04:15:45;;;;;;;17.83;9.03;;;;;;;;;;5073753;28;20497;-61
2023/06/06 04:18:13;;;;;;;11.37;8.47;;;;;;;;;;5074609;28;20430;-61
2023/06/06 04:20:40;;;;;;;13.00;9.37;;;;;;;;;;5073850;28;20441;-61
2023/06/06 04:23:07;;;;;;;17.47;9.50;;;;;;;;;;5073703;28;20459;-64
2023/06/06 04:25:34;;;;;;;17.47;10.33;;;;;;;;;;5073670;28;20976;-61
2023/06/06 04:28:01;;;;;;;17.57;8.57;;;;;;;;;;5073750;28;20931;-61
2023/06/06 04:30:29;;;;;;;13.97;10.00;;;;;;;;;;5073590;28;20448;-61
2023/06/06 04:32:58;;;;;;;10.43;8.50;;;;;;;;;;5073941;28;20444;-61
2023/06/06 04:35:25;;;;;;;14.53;9.60;;;;;;;;;;5073869;28;20530;-61
2023/06/06 04:37:53;;;;;;;16.53;10.63;;;;;;;;;;5073441;28;20436;-62
2023/06/06 04:40:21;;;;;;;14.37;9.80;;;;;;;;;;5073682;28;20440;-61
2023/06/06 04:42:49;;;;;;;14.07;9.43;;;;;;;;;;5073015;28;20498;-61
2023/06/06 04:45:17;;;;;;;18.00;10.40;;;;;;;;;;5073541;28;20459;-61
2023/06/06 04:47:45;;;;;;;15.40;10.40;;;;;;;;;;5073405;28;20455;-61
2023/06/06 04:50:13;;;;;;;12.80;9.37;;;;;;;;;;5073637;28;20879;-61
2023/06/06 04:52:40;;;;;;;15.53;10.10;;;;;;;;;;5073586;28;20444;-61
2023/06/06 04:55:08;;;;;;;17.37;10.43;;;;;;;;;;5073590;28;20468;-61
2023/06/06 04:57:36;;;;;;;12.90;10.00;;;;;;;;;;5073539;28;20446;-62
2023/06/06 05:00:05;;;;;;;14.10;11.10;;;;;;;;;;5073360;28;20544;-62
2023/06/06 05:02:32;;;;;;;14.03;9.80;;;;;;;;;;5073196;28;20446;-62
2023/06/06 05:05:01;;;;;;;14.53;9.63;;;;;;;;;;5072944;28;20441;-61
2023/06/06 05:07:30;;;;;;;11.70;9.40;;;;;;;;;;5073503;28;20965;-61
2023/06/06 05:09:57;;;;;;;14.80;10.60;;;;;;;;;;5073298;28;20438;-61
2023/06/06 05:12:26;;;;;;;14.43;10.13;;;;;;;;;;5073319;28;20445;-60
2023/06/06 05:14:53;;;;;;;16.63;10.73;;;;;;;;;;5072878;28;20480;-61
2023/06/06 05:17:22;;;;;;;15.53;9.90;;;;;;;;;;5073634;28;20476;-61
2023/06/06 05:19:50;;;;;;;15.53;9.93;;;;;;;;;;5073388;28;20498;-61
2023/06/06 05:22:17;;;;;;;14.13;10.60;;;;;;;;;;5072448;28;20524;-61
2023/06/06 05:24:46;;;;;;;13.00;10.10;;;;;;;;;;5072698;28;20444;-61
2023/06/06 05:27:13;;;;;;;14.73;11.10;;;;;;;;;;5072905;28;20449;-61
2023/06/06 05:29:40;;;;;;;15.00;10.73;;;;;;;;;;5073128;28;20456;-61
2023/06/06 05:32:08;;;;;;;16.03;10.60;;;;;;;;;;5073714;28;20441;-61
2023/06/06 05:34:35;;;;;;;20.77;10.20;;;;;;;;;;5073032;28;20555;-61
2023/06/06 05:37:02;;;;;;;16.20;11.37;;;;;;;;;;5073158;28;20504;-61
2023/06/06 05:39:29;;;;;;;18.60;11.27;;;;;;;;;;5073172;28;20795;-61
2023/06/06 05:41:58;;;;;;;14.50;11.27;;;;;;;;;;5073060;28;20452;-61
2023/06/06 05:44:25;;;;;;;13.47;10.67;;;;;;;;;;5073077;28;20443;-61
2023/06/06 05:46:55;;;;;;;16.10;11.50;;;;;;;;;;5072977;28;20446;-61
2023/06/06 05:49:22;;;;;;;19.33;11.43;;;;;;;;;;5072658;28;20453;-61
2023/06/06 05:51:50;;;;;;;19.00;13.33;;;;;;;;;;5072874;28;20445;-61
2023/06/06 05:54:17;;;;;;;17.10;10.87;;;;;;;;;;5073234;28;20474;-61
2023/06/06 05:56:44;;;;;;;19.03;11.90;;;;;;;;;;5072786;28;20479;-61
2023/06/06 05:59:13;;;;;;;15.77;10.87;;;;;;;;;;5073422;28;20779;-62
2023/06/06 06:01:41;;;;;;;14.63;10.43;;;;;;;;;;5072507;28;20596;-61
2023/06/06 06:04:08;;;;;;;19.10;11.17;;;;;;;;;;5072892;28;20843;-61
2023/06/06 06:06:37;;;;;;;13.73;10.33;;;;;;;;;;5072789;28;20495;-61
2023/06/06 06:09:05;;;;;;;14.60;10.87;;;;;;;;;;5072801;28;20534;-61
2023/06/06 06:11:32;;;;;;;15.03;10.53;;;;;;;;;;5072471;28;20444;-62
2023/06/06 06:13:59;;;;;;;16.13;11.57;;;;;;;;;;5073106;28;20442;-61
2023/06/06 06:16:28;;;;;;;14.70;11.30;;;;;;;;;;5072417;28;20488;-61
2023/06/06 06:18:55;;;;;;;15.70;10.87;;;;;;;;;;5072703;28;20440;-61
2023/06/06 06:21:24;;;;;;;17.47;11.63;;;;;;;;;;5072347;28;20446;-62
2023/06/06 06:23:51;;;;;;;14.13;11.00;;;;;;;;;;5072769;28;20486;-61
2023/06/06 06:26:19;;;;;;;23.73;10.93;;;;;;;;;;5072304;28;20935;-61
2023/06/06 06:28:46;;;;;;;13.97;10.60;;;;;;;;;;5072418;28;21031;-61
2023/06/06 06:31:14;;;;;;;15.07;10.93;;;;;;;;;;5072364;28;21055;-62
2023/06/06 06:33:42;;;;;;;15.27;11.00;;;;;;;;;;5073172;28;20447;-62
2023/06/06 06:36:09;;;;;;;17.00;10.50;;;;;;;;;;5075674;28;20470;-62
2023/06/06 06:38:37;;;;;;;15.90;11.20;;;;;;;;;;5076205;28;20446;-62
2023/06/06 06:41:04;;;;;;;14.40;11.13;;;;;;;;;;5076002;28;20821;-62
2023/06/06 06:43:31;;;;;;;15.47;10.90;;;;;;;;;;5076025;28;20450;-62
2023/06/06 06:45:58;;;;;;;23.10;11.20;;;;;;;;;;5076490;28;20461;-62
2023/06/06 06:48:26;;;;;;;17.93;11.77;;;;;;;;;;5075977;28;20467;-61
2023/06/06 06:50:55;;;;;;;29.17;11.80;;;;;;;;;;5076300;28;20520;-62
2023/06/06 06:53:23;;;;;;;18.40;13.10;;;;;;;;;;5076108;28;20533;-61
2023/06/06 06:55:51;;;;;;;14.60;11.17;;;;;;;;;;5075624;28;20491;-62
2023/06/06 06:58:25;;;;;;;18.73;11.53;;;;;;;;;;5075485;28;20956;-61
2023/06/06 07:00:52;;;;;;;16.60;11.33;;;;;;;;;;5076157;28;20467;-62
2023/06/06 07:03:20;;;;;;;14.97;12.07;;;;;;;;;;5075743;28;20533;-61
2023/06/06 07:05:47;;;;;;;15.03;10.10;;;;;;;;;;5075567;28;20911;-62
2023/06/06 07:08:15;;;;;;;14.17;11.10;;;;;;;;;;5075123;28;20790;-62
2023/06/06 07:10:44;;;;;;;12.47;9.67;;;;;;;;;;5075189;28;20447;-62
2023/06/06 07:13:14;;;;;;;13.23;10.07;;;;;;;;;;5075130;28;20443;-61
2023/06/06 07:15:41;;;;;;;15.63;9.60;;;;;;;;;;5075354;28;20573;-61
2023/06/06 07:18:09;;;;;;;14.80;10.00;;;;;;;;;;5075375;28;20449;-62
2023/06/06 07:20:36;;;;;;;14.60;10.83;;;;;;;;;;5075420;28;20445;-61
2023/06/06 07:23:03;;;;;;;13.23;10.20;;;;;;;;;;5075312;28;20430;-62
2023/06/06 07:25:31;;;;;;;19.20;9.87;;;;;;;;;;5075517;28;20445;-61
2023/06/06 07:27:59;;;;;;;19.10;10.90;;;;;;;;;;5075243;28;20445;-62
2023/06/06 07:30:26;;;;;;;18.50;9.80;;;;;;;;;;5075247;28;20863;-61
2023/06/06 07:32:53;;;;;;;13.23;9.90;;;;;;;;;;5075184;28;20451;-62
2023/06/06 07:35:21;;;;;;;15.53;10.13;;;;;;;;;;5075203;28;20443;-62
2023/06/06 07:37:48;;;;;;;11.70;9.57;;;;;;;;;;5074628;28;20985;-62
2023/06/06 07:40:16;;;;;;;13.13;10.13;;;;;;;;;;5075553;28;20439;-62
2023/06/06 07:42:47;;;;;;;19.33;11.53;;;;;;;;;;5074953;28;20504;-61
2023/06/06 07:45:14;;;;;;;13.30;9.50;;;;;;;;;;5075229;28;20730;-61
2023/06/06 07:47:41;;;;;;;15.10;9.13;;;;;;;;;;5074665;28;20446;-62
2023/06/06 07:50:09;;;;;;;14.37;9.90;;;;;;;;;;5074790;28;20444;-61
2023/06/06 07:52:39;;;;;;;12.80;9.60;;;;;;;;;;5074677;28;20453;-62
2023/06/06 07:55:07;;;;;;;15.43;10.10;;;;;;;;;;5074923;28;20441;-62
2023/06/06 07:57:34;;;;;;;17.50;10.80;;;;;;;;;;5074478;28;20482;-62
2023/06/06 08:00:10;;;;;;;12.43;9.77;;;;;;;;;;5075226;28;20854;-62
2023/06/06 08:02:37;;;;;;;16.03;9.80;;;;;;;;;;5074552;28;20428;-62
2023/06/06 08:05:05;;;;;;;12.10;9.03;;;;;;;;;;5074548;28;20478;-61
2023/06/06 08:07:35;;;;;;;10.07;9.07;;;;;;;;;;5074131;28;20442;-62
2023/06/06 08:10:02;;;;;;;16.43;9.17;;;;;;;;;;5074128;28;20439;-62
2023/06/06 08:12:29;;;;;;;13.70;9.00;;;;;;;;;;5073969;28;20443;-62
2023/06/06 08:14:56;;;;;;;13.00;9.80;;;;;;;;;;5073909;28;20449;-61
2023/06/06 08:17:25;;;;;;;15.87;7.90;;;;;;;;;;5074169;28;20573;-61
2023/06/06 08:19:52;;;;;;;18.30;9.90;;;;;;;;;;5074283;28;20451;-62
2023/06/06 08:22:19;;;;;;;13.57;9.60;;;;;;;;;;5073999;28;20535;-62
2023/06/06 08:24:46;;;;;;;11.63;9.13;;;;;;;;;;5074210;28;20869;-62
2023/06/06 08:27:13;;;;;;;12.77;9.20;;;;;;;;;;5073755;28;20932;-62
2023/06/06 08:29:41;;;;;;;13.40;8.77;;;;;;;;;;5073976;28;20951;-59
2023/06/06 08:32:08;;;;;;;12.67;9.40;;;;;;;;;;5073396;28;20447;-61
2023/06/06 08:34:37;;;;;;;13.03;9.30;;;;;;;;;;5073499;28;20495;-60
2023/06/06 08:37:04;;;;;;;15.93;7.93;;;;;;;;;;5074197;28;20473;-63
2023/06/06 08:39:31;;;;;;;13.63;8.27;;;;;;;;;;5074190;28;20493;-60
2023/06/06 08:41:59;;;;;;;13.10;9.00;;;;;;;;;;5074031;28;20441;-60
2023/06/06 08:44:26;;;;;;;12.87;9.20;;;;;;;;;;5073550;28;20796;-61
2023/06/06 08:46:54;;;;;;;14.10;8.57;;;;;;;;;;5073746;28;20468;-60
2023/06/06 08:49:22;;;;;;;13.17;9.17;;;;;;;;;;5073618;28;20441;-60
2023/06/06 08:51:51;;;;;;;20.53;9.10;;;;;;;;;;5073417;28;20443;-60
2023/06/06 08:54:19;;;;;;;17.70;9.30;;;;;;;;;;5073461;28;20518;-60
2023/06/06 08:56:46;;;;;;;9.90;8.90;;;;;;;;;;5073140;28;20478;-60
2023/06/06 08:59:16;;;;;;;15.73;8.77;;;;;;;;;;5073475;28;20444;-62
2023/06/06 09:01:43;;;;;;;14.67;7.60;;;;;;;;;;5073272;28;20453;-60
2023/06/06 09:04:13;;;;;;;15.00;7.67;;;;;;;;;;5073554;28;20525;-60
2023/06/06 09:06:43;;;;;;;15.27;8.80;;;;;;;;;;5073164;28;20462;-62
2023/06/06 09:09:13;;;;;;;9.57;7.87;;;;;;;;;;5073143;28;20502;-62
2023/06/06 09:11:40;;;;;;;12.40;6.90;;;;;;;;;;5073069;28;20943;-61
2023/06/06 09:14:08;;;;;;;11.07;8.10;;;;;;;;;;5073489;28;20451;-61
2023/06/06 09:16:35;;;;;;;10.07;8.30;;;;;;;;;;5073473;28;20514;-61
2023/06/06 09:19:03;;;;;;;15.63;8.40;;;;;;;;;;5073329;28;20440;-61
2023/06/06 09:21:32;;;;;;;13.50;7.80;;;;;;;;;;5073109;28;21025;-61
2023/06/06 09:23:59;;;;;;;13.13;7.70;;;;;;;;;;5072924;28;20444;-61
2023/06/06 09:26:29;;;;;;;7.70;6.77;;;;;;;;;;5073331;28;20447;-61
2023/06/06 09:28:56;;;;;;;9.77;7.27;;;;;;;;;;5073203;28;20434;-61
2023/06/06 09:31:25;;;;;;;8.40;6.57;;;;;;;;;;5073344;28;20454;-61
2023/06/06 09:33:52;;;;;;;15.90;8.97;;;;;;;;;;5073200;28;20444;-61
2023/06/06 09:36:21;;;;;;;15.70;7.80;;;;;;;;;;5073163;28;20438;-61
2023/06/06 09:38:49;;;;;;;11.77;7.23;;;;;;;;;;5073399;28;20795;-61
2023/06/06 09:41:16;;;;;;;15.57;7.83;;;;;;;;;;5072723;28;20447;-61
2023/06/06 09:43:45;;;;;;;9.70;7.80;;;;;;;;;;5073152;28;20452;-61
2023/06/06 09:46:16;;;;;;;9.53;8.17;;;;;;;;;;5072778;28;20454;-60
2023/06/06 09:48:44;;;;;;;9.00;7.70;;;;;;;;;;5072637;28;20439;-61
2023/06/06 09:51:11;;;;;;;9.80;7.40;;;;;;;;;;5072608;28;20445;-61
2023/06/06 09:53:40;;;;;;;9.90;6.70;;;;;;;;;;5072458;28;20535;-62
2023/06/06 09:56:08;;;;;;;8.70;7.40;;;;;;;;;;5072900;28;20444;-61
2023/06/06 09:58:36;;;;;;;7.63;6.33;;;;;;;;;;5072921;28;20487;-62
2023/06/06 10:01:06;;;;;;;11.70;7.20;;;;;;;;;;5072495;28;20951;-61
2023/06/06 10:03:37;;;;;;;10.10;6.93;;;;;;;;;;5072835;28;20506;-62
2023/06/06 10:06:05;;;;;;;11.93;7.30;;;;;;;;;;5072970;28;20483;-61
2023/06/06 10:08:33;;;;;;;7.80;6.57;;;;;;;;;;5075057;28;20785;-62
2023/06/06 10:11:01;;;;;;;8.10;7.30;;;;;;;;;;5076795;28;20875;-61
2023/06/06 10:13:29;;;;;;;10.50;7.07;;;;;;;;;;5076216;28;20458;-61
2023/06/06 10:15:59;;;;;;;7.60;6.80;;;;;;;;;;5076096;28;20562;-61
2023/06/06 10:18:28;;;;;;;7.50;6.70;;;;;;;;;;5076795;28;20468;-61
2023/06/06 10:20:56;;;;;;;7.17;6.43;;;;;;;;;;5076640;28;20448;-61
2023/06/06 10:23:23;;;;;;;8.30;7.20;;;;;;;;;;5075992;28;20448;-62
2023/06/06 10:25:50;;;;;;;10.30;7.63;;;;;;;;;;5077126;28;20440;-61
2023/06/06 10:28:19;;;;;;;10.83;6.90;;;;;;;;;;5076325;28;20448;-61
2023/06/06 10:30:51;;;;;;;13.10;7.43;;;;;;;;;;5076264;28;20445;-61
2023/06/06 10:33:26;;;;;;;10.50;6.33;;;;;;;;;;5076069;28;20494;-61
2023/06/06 10:35:57;;;;;;;6.97;5.93;;;;;;;;;;5076295;28;20428;-61
2023/06/06 10:38:29;;;;;;;9.47;6.57;;;;;;;;;;5076335;28;20576;-61
2023/06/06 10:40:58;;;;;;;11.13;6.73;;;;;;;;;;5076234;28;20459;-61
2023/06/06 10:43:44;;;;;;;8.20;7.00;;;;;;;;;;5075816;28;20502;-61
2023/06/06 10:46:11;;;;;;;11.37;6.53;;;;;;;;;;5076510;28;20456;-61
2023/06/06 10:48:39;;;;;;;11.03;7.23;;;;;;;;;;5075926;28;20440;-61
2023/06/06 10:51:07;;;;;;;7.70;6.43;;;;;;;;;;5075966;28;20448;-61
2023/06/06 10:53:35;;;;;;;7.20;5.90;;;;;;;;;;5075995;28;20449;-61
2023/06/06 10:56:03;;;;;;;6.90;6.10;;;;;;;;;;5075837;28;20441;-61
2023/06/06 10:58:31;;;;;;;7.53;6.43;;;;;;;;;;5075779;28;20480;-61
2023/06/06 11:00:59;;;;;;;10.40;6.37;;;;;;;;;;5075743;28;20440;-61
2023/06/06 11:03:40;;;;;;;9.97;6.63;;;;;;;;;;5075471;28;20970;-61
2023/06/06 11:06:12;;;;;;;12.27;6.10;;;;;;;;;;5075672;28;20437;-61
2023/06/06 11:08:40;;;;;;;12.50;5.83;;;;;;;;;;5075362;28;20960;-60
2023/06/06 11:11:21;;;;;;;7.20;5.70;;;;;;;;;;5075508;28;20525;-61
2023/06/06 11:13:56;;;;;;;6.93;6.23;;;;;;;;;;5075559;28;20525;-60
2023/06/06 11:16:30;;;;;;;6.67;5.83;;;;;;;;;;5074848;28;20477;-60
2023/06/06 11:19:04;;;;;;;12.50;6.80;;;;;;;;;;5075379;28;20480;-60
2023/06/06 11:21:32;;;;;;;9.60;5.50;;;;;;;;;;5075236;28;20528;-60
2023/06/06 11:24:00;;;;;;;7.23;6.50;;;;;;;;;;5075190;28;20446;-60
2023/06/06 11:26:28;;;;;;;9.97;6.10;;;;;;;;;;5075168;28;20439;-61
2023/06/06 11:28:55;;;;;;;8.77;6.73;;;;;;;;;;5075331;28;20445;-61
2023/06/06 11:31:24;;;;;;;11.60;6.87;;;;;;;;;;5075092;28;20472;-61
2023/06/06 11:33:51;;;;;;;5.37;4.83;;;;;;;;;;5074874;28;20443;-61
2023/06/06 11:36:19;;;;;;;8.07;5.27;;;;;;;;;;5074720;28;20853;-61
2023/06/06 11:38:47;;;;;;;7.80;5.93;;;;;;;;;;5074752;28;20853;-61
2023/06/06 11:41:15;;;;;;;7.67;5.70;;;;;;;;;;5075149;28;20447;-61
2023/06/06 11:43:50;;;;;;;7.20;5.37;;;;;;;;;;5075036;28;20503;-60
2023/06/06 11:46:18;;;;;;;8.30;5.37;;;;;;;;;;5074823;28;20796;-61
2023/06/06 11:48:45;;;;;;;5.93;4.80;;;;;;;;;;5075088;28;20455;-61
2023/06/06 11:51:12;;;;;;;11.00;5.07;;;;;;;;;;5074729;28;20456;-62
2023/06/06 11:53:40;;;;;;;7.87;6.00;;;;;;;;;;5074932;28;20453;-61
2023/06/06 11:56:15;;;;;;;7.43;5.90;;;;;;;;;;5074321;28;20475;-62
2023/06/06 11:58:42;;;;;;;7.47;4.83;;;;;;;;;;5074432;28;20577;-61
2023/06/06 12:01:10;;;;;;;7.50;6.03;;;;;;;;;;5074409;28;20448;-62
2023/06/06 12:03:39;;;;;;;8.27;6.67;;;;;;;;;;5074767;28;20533;-61
2023/06/06 12:06:07;;;;;;;8.40;5.70;;;;;;;;;;5074114;28;21033;-61
2023/06/06 12:08:34;;;;;;;11.63;5.20;;;;;;;;;;5074113;28;20458;-62
2023/06/06 12:11:16;;;;;;;9.10;5.63;;;;;;;;;;5074405;28;20813;-61
2023/06/06 12:13:45;;;;;;;10.10;5.50;;;;;;;;;;5073818;28;20470;-61
2023/06/06 12:16:12;;;;;;;6.63;6.03;;;;;;;;;;5074242;28;20485;-62
2023/06/06 12:18:46;;;;;;;8.80;5.03;;;;;;;;;;5074334;28;20502;-61
2023/06/06 12:21:16;;;;;;;7.03;6.13;;;;;;;;;;5074493;28;20485;-62
2023/06/06 12:23:44;;;;;;;5.40;4.90;;;;;;;;;;5073843;28;20483;-61
2023/06/06 12:26:12;;;;;;;8.87;5.13;;;;;;;;;;5074275;28;20429;-61
2023/06/06 12:28:54;;;;;;;7.73;4.70;;;;;;;;;;5074087;28;20450;-61
2023/06/06 12:31:24;;;;;;;9.70;5.20;;;;;;;;;;5073533;28;20530;-61
2023/06/06 12:33:54;;;;;;;10.10;5.80;;;;;;;;;;5074012;28;20515;-61
2023/06/06 12:36:24;;;;;;;9.23;6.03;;;;;;;;;;5074274;28;20440;-61
2023/06/06 12:39:01;;;;;;;7.20;4.57;;;;;;;;;;5073855;28;20478;-61
2023/06/06 12:41:39;;;;;;;8.10;5.00;;;;;;;;;;5073754;28;20443;-61
2023/06/06 12:44:08;;;;;;;14.77;7.70;;;;;;;;;;5073320;28;20442;-61
2023/06/06 12:46:36;;;;;;;5.23;4.73;;;;;;;;;;5073687;28;20861;-62
2023/06/06 12:49:03;;;;;;;7.10;5.10;;;;;;;;;;5073739;28;20807;-61
2023/06/06 12:51:31;;;;;;;5.80;5.30;;;;;;;;;;5073018;28;20447;-61
2023/06/06 12:53:59;;;;;;;7.87;4.80;;;;;;;;;;5072263;28;20422;-61
2023/06/06 12:56:27;;;;;;;6.67;5.23;;;;;;;;;;5072420;28;20462;-61
2023/06/06 12:58:54;;;;;;;6.23;4.60;;;;;;;;;;5073029;28;20549;-61
2023/06/06 13:01:22;;;;;;;7.70;4.60;;;;;;;;;;5072145;28;20502;-61
2023/06/06 13:03:51;;;;;;;5.90;5.30;;;;;;;;;;5072115;28;20457;-61
2023/06/06 13:06:19;;;;;;;5.10;4.60;;;;;;;;;;5072688;28;20443;-61
2023/06/06 13:08:46;;;;;;;7.07;5.23;;;;;;;;;;5072615;28;20446;-61
2023/06/06 13:11:13;;;;;;;6.67;4.23;;;;;;;;;;5072505;28;20479;-62
2023/06/06 13:13:41;;;;;;;10.00;5.23;;;;;;;;;;5072852;28;20444;-61
2023/06/06 13:16:08;;;;;;;7.80;5.00;;;;;;;;;;5072768;28;20483;-62
2023/06/06 13:18:37;;;;;;;5.80;4.20;;;;;;;;;;5072623;28;20477;-61
2023/06/06 13:21:06;;;;;;;5.07;4.40;;;;;;;;;;5073056;28;20467;-61
2023/06/06 13:23:33;;;;;;;12.53;4.17;;;;;;;;;;5072578;28;20463;-61
2023/06/06 13:26:00;;;;;;;4.03;3.70;;;;;;;;;;5072521;28;20900;-62
2023/06/06 13:28:27;;;;;;;6.43;4.10;;;;;;;;;;5072921;28;20777;-61
2023/06/06 13:30:55;;;;;;;6.63;4.23;;;;;;;;;;5072915;28;20424;-62
2023/06/06 13:33:23;;;;;;;4.97;4.17;;;;;;;;;;5073158;28;20800;-62
2023/06/06 13:35:50;;;;;;;7.03;6.30;;;;;;;;;;5072253;28;20443;-62
2023/06/06 13:38:22;;;;;;;5.53;4.30;;;;;;;;;;5072434;28;20450;-62
2023/06/06 13:40:49;;;;;;;9.30;5.20;;;;;;;;;;5072843;28;20432;-63
2023/06/06 13:43:16;;;;;;;6.80;4.73;;;;;;;;;;5074715;28;20870;-63
2023/06/06 13:45:44;;;;;;;5.30;4.80;;;;;;;;;;5076844;28;20520;-62
2023/06/06 13:48:11;;;;;;;5.00;3.90;;;;;;;;;;5076368;28;20481;-62
2023/06/06 13:50:38;;;;;;;5.53;4.47;;;;;;;;;;5076682;28;20421;-62
2023/06/06 13:53:06;;;;;;;5.47;4.93;;;;;;;;;;5076485;28;20474;-62
2023/06/06 13:55:34;;;;;;;9.17;8.10;;;;;;;;;;5076236;28;20444;-62
2023/06/06 13:58:05;;;;;;;4.30;3.90;;;;;;;;;;5076119;28;20563;-62
2023/06/06 14:00:32;;;;;;;4.93;3.67;;;;;;;;;;5076487;28;20444;-69
2023/06/06 14:03:00;;;;;;;4.27;3.87;;;;;;;;;;5076417;28;20775;-62
2023/06/06 14:05:28;;;;;;;4.97;3.80;;;;;;;;;;5076459;28;20421;-66
2023/06/06 14:07:55;;;;;;;9.30;4.10;;;;;;;;;;5076449;28;20418;-62
2023/06/06 14:10:22;;;;;;;6.13;3.90;;;;;;;;;;5076052;28;20419;-63
2023/06/06 14:12:50;;;;;;;4.67;4.30;;;;;;;;;;5075766;28;20471;-63
2023/06/06 14:15:18;;;;;;;4.67;4.20;;;;;;;;;;5075853;28;20792;-64
2023/06/06 14:17:46;;;;;;;4.30;3.90;;;;;;;;;;5076583;28;20797;-63
2023/06/06 14:20:20;;;;;;;4.20;3.80;;;;;;;;;;5075945;28;20444;-63
2023/06/06 14:22:48;;;;;;;6.77;4.03;;;;;;;;;;5075897;28;20447;-62
2023/06/06 14:25:15;;;;;;;4.60;4.20;;;;;;;;;;5076095;28;20448;-63
2023/06/06 14:27:42;;;;;;;5.17;4.00;;;;;;;;;;5076072;28;20443;-63
2023/06/06 14:30:12;;;;;;;9.63;4.40;;;;;;;;;;5076188;28;20493;-62
2023/06/06 14:32:40;;;;;;;9.30;4.10;;;;;;;;;;5075468;28;20478;-63
2023/06/06 14:35:08;;;;;;;4.30;3.90;;;;;;;;;;5076144;28;20442;-62
2023/06/06 14:37:35;;;;;;;4.43;3.80;;;;;;;;;;5075753;28;20448;-63
2023/06/06 14:40:05;;;;;;;4.50;4.10;;;;;;;;;;5075865;28;20485;-63